Time;durP1;ratioP1;P1;durP2;ratioP2;P2;SDS_P1;SDS_P2;PMS_P1;PMS_P2;Temp;Humidity;BMP_temperature;BMP_pressure;BME280_temperature;BME280_humidity;BME280_pressure;Samples;Min_cycle;Max_cycle;Signal;HPM_P1;HPM_P2
2021/07/21 14:55:24;;;;;;;8.60;7.77;;;27.20;56.90;;;;;;5006250;28;21108;-55
2021/07/21 14:57:50;;;;;;;10.73;7.30;;;27.10;57.70;;;;;;4988980;28;20437;-56
2021/07/21 15:00:16;;;;;;;9.20;8.30;;;26.90;57.30;;;;;;4997536;28;20457;-55
2021/07/21 15:02:42;;;;;;;8.60;7.70;;;26.90;56.90;;;;;;4969760;28;20525;-55
2021/07/21 15:05:08;;;;;;;11.90;8.00;;;27.00;57.00;;;;;;4970618;28;20462;-55
2021/07/21 15:07:34;;;;;;;8.97;8.13;;;27.00;56.10;;;;;;4985601;28;20188;-56
2021/07/21 15:09:59;;;;;;;8.77;7.87;;;27.10;56.00;;;;;;4988470;28;20532;-55
2021/07/21 15:12:28;;;;;;;12.70;9.43;;;27.20;56.10;;;;;;4973549;28;20290;-55
2021/07/21 15:14:54;;;;;;;8.90;7.80;;;27.20;55.50;;;;;;4976016;28;20242;-55
2021/07/21 15:17:19;;;;;;;8.47;7.53;;;27.20;54.50;;;;;;4973886;28;20447;-55
2021/07/21 15:19:45;;;;;;;7.90;7.20;;;27.10;54.70;;;;;;4968551;28;20468;-55
2021/07/21 15:22:12;;;;;;;8.20;7.50;;;27.10;54.50;;;;;;4973205;28;20558;-55
2021/07/21 15:24:39;;;;;;;8.83;7.40;;;27.10;54.40;;;;;;4967284;28;20184;-56
2021/07/21 15:27:05;;;;;;;8.73;7.00;;;27.00;54.70;;;;;;4971409;28;20906;-56
2021/07/21 15:29:32;;;;;;;8.53;7.50;;;27.00;54.10;;;;;;4978358;28;20500;-55
2021/07/21 15:31:58;;;;;;;8.60;7.60;;;27.00;54.00;;;;;;4980028;28;20447;-55
2021/07/21 15:34:24;;;;;;;10.57;8.30;;;27.00;53.70;;;;;;4972563;28;20527;-55
2021/07/21 15:36:50;;;;;;;10.30;9.30;;;26.90;53.80;;;;;;4968981;28;20456;-57
2021/07/21 15:39:18;;;;;;;7.90;7.07;;;26.90;53.70;;;;;;4970060;28;20529;-57
2021/07/21 15:41:49;;;;;;;7.63;6.90;;;27.00;54.60;;;;;;4975760;28;20215;-57
2021/07/21 15:44:15;;;;;;;10.00;7.30;;;26.80;54.50;;;;;;4987082;28;20483;-58
2021/07/21 15:46:41;;;;;;;7.57;6.87;;;26.80;54.70;;;;;;4970341;28;20457;-57
2021/07/21 15:49:11;;;;;;;8.13;7.37;;;26.80;53.60;;;;;;4973280;28;20553;-58
2021/07/21 15:51:38;;;;;;;7.63;6.90;;;26.80;53.80;;;;;;4968207;28;20452;-58
2021/07/21 15:54:05;;;;;;;7.80;6.87;;;26.80;52.70;;;;;;4966642;28;20843;-57
2021/07/21 15:56:31;;;;;;;7.00;6.40;;;26.70;52.70;;;;;;4969492;28;20522;-57
2021/07/21 15:58:57;;;;;;;7.60;6.90;;;26.70;53.50;;;;;;4968917;28;20526;-57
2021/07/21 16:01:32;;;;;;;9.30;6.80;;;26.70;53.50;;;;;;4969350;28;20207;-58
2021/07/21 16:03:57;;;;;;;10.80;6.73;;;26.80;53.10;;;;;;4984701;28;20448;-57
2021/07/21 16:06:23;;;;;;;6.73;6.10;;;26.70;53.00;;;;;;4968659;28;20462;-57
2021/07/21 16:08:49;;;;;;;7.07;6.43;;;26.80;53.20;;;;;;4972220;28;20268;-58
2021/07/21 16:11:16;;;;;;;6.80;6.20;;;26.80;53.50;;;;;;4979752;28;20546;-58
2021/07/21 16:13:41;;;;;;;7.87;6.90;;;26.80;52.90;;;;;;4973152;28;20516;-58
2021/07/21 16:16:09;;;;;;;9.20;7.30;;;26.80;53.20;;;;;;4973774;28;20771;-57
2021/07/21 16:18:37;;;;;;;9.87;8.77;;;26.80;53.30;;;;;;4974970;28;20206;-58
2021/07/21 16:21:04;;;;;;;7.17;6.47;;;26.70;53.80;;;;;;4973709;28;20998;-57
2021/07/21 16:23:29;;;;;;;7.53;6.73;;;26.70;53.30;;;;;;4974977;28;20450;-57
2021/07/21 16:25:55;;;;;;;7.03;6.33;;;26.70;53.50;;;;;;4971882;28;20453;-58
2021/07/21 16:28:21;;;;;;;6.97;6.30;;;26.60;53.50;;;;;;4972249;28;20188;-58
2021/07/21 16:30:47;;;;;;;7.10;6.40;;;26.40;54.10;;;;;;4967138;28;20461;-58
2021/07/21 16:33:13;;;;;;;9.37;7.20;;;26.30;54.50;;;;;;4967011;28;20290;-58
2021/07/21 16:35:38;;;;;;;7.40;6.70;;;26.30;55.50;;;;;;4969796;28;20172;-57
2021/07/21 16:38:04;;;;;;;7.33;6.60;;;26.30;54.50;;;;;;4969086;28;20190;-58
2021/07/21 16:40:30;;;;;;;7.63;6.93;;;26.30;54.70;;;;;;4984596;28;20258;-57
2021/07/21 16:42:56;;;;;;;7.23;6.50;;;26.30;54.60;;;;;;4968017;28;20187;-57
2021/07/21 16:45:21;;;;;;;6.83;6.13;;;26.30;54.80;;;;;;4969005;28;20188;-58
2021/07/21 16:47:48;;;;;;;10.33;6.33;;;26.40;54.40;;;;;;4974383;28;20213;-59
2021/07/21 16:50:19;;;;;;;6.90;6.20;;;26.30;54.30;;;;;;4984970;28;20206;-57
2021/07/21 16:52:45;;;;;;;7.00;6.37;;;26.30;54.30;;;;;;4965546;28;20447;-58
2021/07/21 16:55:16;;;;;;;7.23;6.53;;;26.20;55.00;;;;;;4967944;28;20473;-57
2021/07/21 16:57:42;;;;;;;6.80;5.90;;;26.20;54.10;;;;;;4967395;28;20441;-58
2021/07/21 17:00:17;;;;;;;7.57;6.07;;;26.10;54.60;;;;;;4966827;28;20465;-58
2021/07/21 17:02:44;;;;;;;6.90;5.97;;;26.10;54.50;;;;;;4966819;28;20930;-59
2021/07/21 17:05:13;;;;;;;6.93;6.33;;;26.00;54.70;;;;;;4968815;28;20446;-56
2021/07/21 17:07:39;;;;;;;7.93;6.33;;;25.90;55.20;;;;;;4984273;28;20449;-56
2021/07/21 17:10:05;;;;;;;6.67;6.07;;;25.80;55.70;;;;;;4969004;28;20793;-57
2021/07/21 17:12:31;;;;;;;7.27;6.57;;;25.90;55.20;;;;;;4968637;28;20362;-56
2021/07/21 17:14:56;;;;;;;7.67;6.93;;;25.80;54.90;;;;;;4970949;28;20564;-56
2021/07/21 17:17:22;;;;;;;8.73;7.30;;;25.80;55.30;;;;;;4967852;28;20188;-56
2021/07/21 17:19:48;;;;;;;8.70;7.20;;;25.80;55.80;;;;;;4984216;28;22340;-56
2021/07/21 17:22:14;;;;;;;7.20;6.50;;;25.90;55.60;;;;;;4968929;28;20186;-56
2021/07/21 17:24:39;;;;;;;7.53;6.83;;;25.90;55.30;;;;;;4967540;28;20437;-58
2021/07/21 17:27:05;;;;;;;7.93;7.13;;;25.90;54.60;;;;;;4966794;28;20529;-58
2021/07/21 17:29:31;;;;;;;6.57;5.93;;;25.80;54.80;;;;;;4967376;28;20629;-56
2021/07/21 17:31:57;;;;;;;9.87;6.27;;;25.80;54.70;;;;;;4967102;28;20204;-56
2021/07/21 17:34:23;;;;;;;7.00;6.30;;;25.80;54.70;;;;;;4967629;28;20528;-56
2021/07/21 17:36:50;;;;;;;6.97;6.37;;;25.80;54.20;;;;;;4967907;28;20443;-57
2021/07/21 17:39:16;;;;;;;6.83;6.13;;;25.70;54.40;;;;;;4968118;28;20210;-58
2021/07/21 17:41:44;;;;;;;7.40;5.93;;;25.70;54.20;;;;;;4968429;28;20448;-57
2021/07/21 17:44:09;;;;;;;5.47;4.97;;;25.70;54.30;;;;;;4968411;28;20953;-58
2021/07/21 17:46:35;;;;;;;7.20;6.10;;;25.60;54.20;;;;;;4969008;28;20503;-57
2021/07/21 17:49:01;;;;;;;6.60;5.90;;;25.60;54.70;;;;;;4969956;28;20197;-57
2021/07/21 17:51:28;;;;;;;6.63;5.87;;;25.40;55.00;;;;;;4969525;28;20476;-57
2021/07/21 17:53:54;;;;;;;6.70;6.00;;;25.30;55.50;;;;;;4970002;28;20628;-57
2021/07/21 17:56:20;;;;;;;6.47;5.87;;;25.40;55.30;;;;;;4968085;28;20444;-57
2021/07/21 17:58:46;;;;;;;8.43;6.40;;;25.30;54.90;;;;;;4968293;28;20440;-58
2021/07/21 18:01:14;;;;;;;7.87;7.10;;;25.30;55.60;;;;;;4967711;28;20472;-57
2021/07/21 18:03:40;;;;;;;8.70;7.77;;;25.40;56.70;;;;;;4971044;28;20262;-57
2021/07/21 18:06:05;;;;;;;7.10;6.40;;;25.30;56.10;;;;;;4974131;28;21025;-57
2021/07/21 18:08:31;;;;;;;6.20;5.57;;;25.30;55.80;;;;;;4982470;28;20676;-57
2021/07/21 18:10:57;;;;;;;10.90;7.80;;;25.30;55.50;;;;;;4967009;28;20224;-57
2021/07/21 18:13:22;;;;;;;7.30;6.70;;;25.20;56.20;;;;;;4968270;28;20203;-58
2021/07/21 18:15:48;;;;;;;8.70;7.37;;;25.20;55.90;;;;;;4967577;28;20275;-58
2021/07/21 18:18:14;;;;;;;9.50;6.60;;;25.20;56.50;;;;;;4981850;28;20184;-57
2021/07/21 18:20:40;;;;;;;6.27;5.67;;;25.20;56.60;;;;;;4966870;28;20535;-57
2021/07/21 18:23:06;;;;;;;7.53;6.67;;;25.20;56.70;;;;;;4982378;28;20247;-58
2021/07/21 18:25:31;;;;;;;7.93;6.50;;;25.20;57.30;;;;;;4983251;28;20243;-57
2021/07/21 18:27:57;;;;;;;7.33;6.63;;;25.20;57.40;;;;;;4984144;28;20466;-57
2021/07/21 18:30:23;;;;;;;8.43;6.40;;;25.20;57.80;;;;;;4966378;28;20570;-56
2021/07/21 18:32:51;;;;;;;7.53;5.73;;;25.10;58.20;;;;;;4968077;28;20217;-57
2021/07/21 18:35:17;;;;;;;6.80;6.10;;;25.10;58.70;;;;;;4966096;28;20459;-57
2021/07/21 18:37:44;;;;;;;6.93;6.23;;;25.10;58.50;;;;;;4966430;28;20456;-57
2021/07/21 18:40:10;;;;;;;9.50;6.70;;;25.00;58.70;;;;;;4971456;28;20839;-57
2021/07/21 18:42:36;;;;;;;6.80;6.20;;;25.00;58.70;;;;;;4972637;28;20536;-57
2021/07/21 18:45:02;;;;;;;8.17;7.37;;;25.00;59.30;;;;;;4982617;28;20530;-56
2021/07/21 18:47:28;;;;;;;6.80;6.10;;;24.90;59.30;;;;;;4967093;28;20699;-57
2021/07/21 18:49:54;;;;;;;6.67;6.03;;;24.80;59.30;;;;;;4968072;28;20473;-56
2021/07/21 18:52:23;;;;;;;6.80;6.10;;;24.70;59.30;;;;;;4965277;28;20192;-57
2021/07/21 18:54:48;;;;;;;9.63;6.70;;;24.70;59.50;;;;;;4965617;28;20216;-58
2021/07/21 18:57:15;;;;;;;6.93;6.20;;;24.70;59.60;;;;;;4967141;28;20439;-57
2021/07/21 18:59:40;;;;;;;7.67;6.83;;;24.70;59.70;;;;;;4965188;28;20995;-57
2021/07/21 19:02:06;;;;;;;6.47;5.90;;;24.60;59.80;;;;;;4967890;28;20739;-57
2021/07/21 19:04:32;;;;;;;6.97;6.37;;;24.60;60.40;;;;;;4971223;28;20382;-61
2021/07/21 19:06:58;;;;;;;5.93;5.33;;;24.50;60.20;;;;;;4976016;28;20187;-62
2021/07/21 19:09:24;;;;;;;7.77;6.17;;;24.50;60.20;;;;;;4974768;28;20442;-62
2021/07/21 19:11:50;;;;;;;6.13;5.53;;;24.50;60.60;;;;;;4980805;28;20449;-62
2021/07/21 19:14:15;;;;;;;6.50;5.63;;;24.50;61.00;;;;;;4992204;28;20212;-62
2021/07/21 19:16:44;;;;;;;6.80;6.20;;;24.40;61.20;;;;;;4973643;28;20180;-63
2021/07/21 19:19:10;;;;;;;6.70;5.80;;;24.40;62.00;;;;;;4974669;28;20447;-62
2021/07/21 19:21:35;;;;;;;13.83;6.23;;;24.30;61.30;;;;;;4966087;28;20458;-61
2021/07/21 19:24:04;;;;;;;6.97;6.27;;;24.20;62.50;;;;;;4976662;28;20184;-61
2021/07/21 19:26:30;;;;;;;7.03;6.33;;;24.20;63.10;;;;;;4989478;28;20512;-61
2021/07/21 19:28:55;;;;;;;7.60;6.80;;;24.20;63.30;;;;;;4969348;28;20517;-61
2021/07/21 19:31:21;;;;;;;9.70;7.27;;;24.10;67.80;;;;;;4974347;28;20294;-61
2021/07/21 19:33:47;;;;;;;16.63;7.80;;;24.00;68.60;;;;;;4974076;28;20285;-61
2021/07/21 19:36:12;;;;;;;10.27;7.70;;;23.90;69.60;;;;;;4975771;28;20272;-61
2021/07/21 19:38:40;;;;;;;10.60;8.63;;;23.70;70.50;;;;;;4978358;28;20179;-62
2021/07/21 19:41:07;;;;;;;7.90;7.10;;;23.50;71.40;;;;;;4978363;28;20294;-62
2021/07/21 19:43:37;;;;;;;8.80;6.90;;;23.40;72.10;;;;;;4975276;28;20454;-64
2021/07/21 19:46:05;;;;;;;9.80;7.70;;;23.20;72.90;;;;;;4979928;28;20874;-65
2021/07/21 19:48:31;;;;;;;10.10;7.70;;;23.10;73.50;;;;;;4973912;28;20819;-64
2021/07/21 19:50:56;;;;;;;8.03;7.23;;;22.90;74.20;;;;;;4981311;28;20481;-65
2021/07/21 19:53:22;;;;;;;10.70;7.23;;;22.90;75.10;;;;;;4971959;28;20471;-64
2021/07/21 19:55:48;;;;;;;9.27;7.50;;;22.70;75.80;;;;;;4978460;28;20232;-64
2021/07/21 19:58:14;;;;;;;8.97;7.60;;;22.50;76.80;;;;;;4970885;28;20192;-64
2021/07/21 20:00:39;;;;;;;8.40;7.60;;;22.30;78.00;;;;;;4985179;28;20692;-64
2021/07/21 20:03:05;;;;;;;8.00;7.20;;;22.20;78.70;;;;;;4979834;28;20184;-64
2021/07/21 20:05:31;;;;;;;9.30;7.90;;;22.00;79.40;;;;;;4974110;28;20183;-63
2021/07/21 20:07:57;;;;;;;9.32;7.47;;;21.90;80.10;;;;;;4981650;28;20439;-63
2021/07/21 20:10:23;;;;;;;8.57;7.67;;;21.80;81.00;;;;;;4988969;28;20250;-64
2021/07/21 20:12:48;;;;;;;7.43;6.73;;;21.70;81.50;;;;;;4973796;28;20185;-63
2021/07/21 20:15:14;;;;;;;8.27;7.47;;;21.60;82.10;;;;;;4978183;28;20180;-63
2021/07/21 20:17:42;;;;;;;7.20;6.40;;;21.50;83.00;;;;;;4975039;28;20180;-64
2021/07/21 20:20:09;;;;;;;7.10;6.40;;;21.40;83.80;;;;;;4976128;28;20212;-64
2021/07/21 20:22:40;;;;;;;8.40;7.53;;;21.40;84.50;;;;;;4974896;28;20183;-64
2021/07/21 20:25:06;;;;;;;8.90;8.00;;;21.50;84.80;;;;;;4973653;28;20213;-64
2021/07/21 20:27:32;;;;;;;8.10;7.30;;;21.30;85.20;;;;;;4990173;28;20194;-64
2021/07/21 20:29:58;;;;;;;7.87;7.03;;;21.30;85.30;;;;;;4977269;28;20225;-64
2021/07/21 20:32:23;;;;;;;7.40;6.67;;;21.20;86.10;;;;;;4986088;28;20184;-62
2021/07/21 20:34:52;;;;;;;11.57;7.33;;;21.20;86.60;;;;;;4973900;28;20758;-63
2021/07/21 20:37:18;;;;;;;7.03;6.32;;;21.10;87.20;;;;;;4976144;28;20180;-63
2021/07/21 20:39:44;;;;;;;8.80;7.90;;;21.10;87.80;;;;;;4989571;28;20214;-64
2021/07/21 20:42:10;;;;;;;7.40;6.70;;;21.00;88.20;;;;;;4974098;28;20238;-64
2021/07/21 20:44:36;;;;;;;9.23;6.85;;;21.00;88.50;;;;;;4988118;28;20219;-64
2021/07/21 20:47:04;;;;;;;8.27;7.43;;;20.90;89.00;;;;;;4974354;28;20215;-64
2021/07/21 20:49:29;;;;;;;7.18;6.50;;;20.90;89.50;;;;;;4981000;28;20183;-64
2021/07/21 20:51:55;;;;;;;9.07;7.23;;;20.80;89.90;;;;;;4972745;28;20246;-64
2021/07/21 20:54:21;;;;;;;9.73;7.37;;;20.90;90.10;;;;;;4977446;28;20640;-64
2021/07/21 20:56:47;;;;;;;10.17;7.97;;;20.90;90.30;;;;;;4974914;28;20195;-64
2021/07/21 20:59:12;;;;;;;7.60;6.90;;;20.80;90.30;;;;;;4972662;28;20185;-64
2021/07/21 21:01:38;;;;;;;9.60;7.70;;;20.80;90.50;;;;;;4973640;28;20193;-64
2021/07/21 21:04:04;;;;;;;7.87;6.67;;;20.80;90.80;;;;;;4977154;28;20203;-64
2021/07/21 21:06:30;;;;;;;7.53;6.73;;;20.80;91.20;;;;;;4978244;28;20180;-64
2021/07/21 21:08:56;;;;;;;8.03;7.23;;;20.70;91.30;;;;;;4979704;28;20332;-64
2021/07/21 21:11:21;;;;;;;7.80;7.00;;;20.60;91.30;;;;;;4977588;28;20489;-64
2021/07/21 21:13:47;;;;;;;10.30;7.50;;;20.70;91.50;;;;;;4970920;28;20528;-64
2021/07/21 21:16:13;;;;;;;8.10;7.10;;;20.60;91.50;;;;;;4977638;28;20274;-64
2021/07/21 21:18:39;;;;;;;8.95;6.97;;;20.50;91.80;;;;;;4988532;28;20184;-64
2021/07/21 21:21:05;;;;;;;8.17;7.37;;;20.50;92.20;;;;;;4971512;28;20681;-64
2021/07/21 21:23:36;;;;;;;8.47;7.67;;;20.50;92.90;;;;;;4972021;28;20188;-64
2021/07/21 21:26:02;;;;;;;9.65;7.70;;;20.50;93.00;;;;;;4975428;28;20282;-65
2021/07/21 21:28:27;;;;;;;9.27;6.73;;;20.50;93.00;;;;;;4976924;28;20278;-64
2021/07/21 21:30:53;;;;;;;10.20;7.27;;;20.50;93.20;;;;;;4973261;28;20211;-64
2021/07/21 21:33:22;;;;;;;7.80;7.10;;;20.50;93.40;;;;;;4980500;28;20207;-64
2021/07/21 21:35:50;;;;;;;8.27;6.95;;;20.40;93.30;;;;;;4977183;28;20175;-64
2021/07/21 21:38:16;;;;;;;8.90;7.45;;;20.40;93.20;;;;;;4974181;28;20187;-64
2021/07/21 21:40:42;;;;;;;8.63;7.22;;;20.30;93.40;;;;;;4974994;28;20580;-64
2021/07/21 21:43:08;;;;;;;9.23;7.67;;;20.30;93.50;;;;;;4973381;28;20291;-64
2021/07/21 21:45:33;;;;;;;7.77;6.70;;;20.30;93.90;;;;;;4980689;28;20443;-64
2021/07/21 21:47:59;;;;;;;7.90;7.13;;;20.30;93.80;;;;;;4974553;28;20684;-64
2021/07/21 21:50:24;;;;;;;9.60;7.83;;;20.30;94.00;;;;;;4971028;28;20219;-64
2021/07/21 21:52:53;;;;;;;8.20;7.40;;;20.20;94.20;;;;;;4986421;28;20196;-64
2021/07/21 21:55:19;;;;;;;9.30;7.20;;;20.10;94.60;;;;;;4970046;28;20265;-64
2021/07/21 21:57:44;;;;;;;8.33;7.53;;;20.10;94.70;;;;;;4973188;28;20188;-64
2021/07/21 22:00:29;;;;;;;8.60;6.73;;;20.20;95.10;;;;;;4979629;28;20207;-64
2021/07/21 22:02:56;;;;;;;7.18;6.47;;;20.10;94.90;;;;;;4974815;28;20652;-64
2021/07/21 22:05:23;;;;;;;8.32;7.20;;;20.10;95.10;;;;;;4973486;28;20279;-64
2021/07/21 22:07:50;;;;;;;8.93;7.53;;;20.20;95.10;;;;;;4973386;28;20191;-64
2021/07/21 22:10:21;;;;;;;8.35;7.55;;;20.10;95.00;;;;;;4968989;28;20200;-64
2021/07/21 22:12:47;;;;;;;7.40;5.88;;;20.10;94.80;;;;;;4979469;28;20249;-64
2021/07/21 22:15:15;;;;;;;8.07;7.28;;;20.10;95.20;;;;;;4974594;28;20282;-64
2021/07/21 22:17:42;;;;;;;7.80;7.07;;;20.10;95.30;;;;;;4982978;28;20179;-64
2021/07/21 22:20:09;;;;;;;7.93;7.05;;;20.00;95.60;;;;;;4974188;28;20278;-64
2021/07/21 22:22:36;;;;;;;7.25;6.55;;;20.00;96.30;;;;;;4974295;28;20189;-64
2021/07/21 22:25:14;;;;;;;8.18;7.38;;;19.90;96.50;;;;;;4979122;28;20215;-64
2021/07/21 22:27:43;;;;;;;6.95;6.35;;;19.80;96.40;;;;;;4971041;28;20278;-64
2021/07/21 22:30:31;;;;;;;8.25;6.93;;;19.80;96.30;;;;;;4971186;28;21488;-64
2021/07/21 22:32:58;;;;;;;10.02;7.53;;;19.80;96.40;;;;;;4984065;28;20285;-64
2021/07/21 22:35:24;;;;;;;8.40;7.18;;;19.70;96.80;;;;;;4982408;28;20270;-64
2021/07/21 22:37:50;;;;;;;8.55;7.28;;;19.80;96.90;;;;;;4965569;28;20192;-64
2021/07/21 22:40:16;;;;;;;9.07;6.90;;;19.80;97.20;;;;;;4967716;28;20259;-64
2021/07/21 22:42:41;;;;;;;7.90;6.83;;;19.80;97.40;;;;;;4989165;28;20236;-64
2021/07/21 22:45:23;;;;;;;8.17;7.37;;;19.70;97.60;;;;;;4972840;28;20197;-64
2021/07/21 22:47:50;;;;;;;7.80;7.07;;;19.70;97.70;;;;;;4972217;28;20226;-64
2021/07/21 22:50:17;;;;;;;7.82;7.13;;;19.60;98.00;;;;;;4977727;28;20214;-63
2021/07/21 22:52:44;;;;;;;8.25;6.90;;;19.50;98.10;;;;;;4971769;28;20179;-64
2021/07/21 22:55:14;;;;;;;7.07;6.38;;;19.40;98.20;;;;;;4971565;28;20211;-64
2021/07/21 22:57:41;;;;;;;7.82;6.72;;;19.40;98.20;;;;;;4975686;28;20207;-64
2021/07/21 23:00:11;;;;;;;8.07;7.35;;;19.30;98.20;;;;;;4971106;28;20207;-61
2021/07/21 23:03:14;;;;;;;7.07;6.38;;;19.30;98.40;;;;;;4980081;28;20286;-62
2021/07/21 23:06:17;;;;;;;10.60;7.35;;;19.20;98.50;;;;;;4971656;28;20290;-62
2021/07/21 23:09:21;;;;;;;11.02;8.25;;;19.20;98.90;;;;;;4966631;28;20662;-62
2021/07/21 23:12:24;;;;;;;7.50;6.80;;;19.10;99.10;;;;;;4972656;28;20338;-62
2021/07/21 23:15:16;;;;;;;8.88;6.65;;;19.10;99.50;;;;;;4974522;28;20207;-62
2021/07/21 23:17:52;;;;;;;7.78;6.97;;;19.10;99.70;;;;;;4966175;28;20649;-63
2021/07/21 23:20:20;;;;;;;8.65;6.93;;;19.00;99.90;;;;;;4972374;28;20581;-62
2021/07/21 23:22:49;;;;;;;6.97;6.38;;;18.90;99.90;;;;;;4972192;28;20564;-62
2021/07/21 23:25:21;;;;;;;8.90;6.53;;;18.90;99.90;;;;;;4979599;28;20222;-61
2021/07/21 23:27:48;;;;;;;8.48;6.30;;;18.90;99.90;;;;;;4988598;28;20188;-61
2021/07/21 23:30:14;;;;;;;7.60;6.93;;;18.90;99.90;;;;;;4973644;28;20218;-61
2021/07/21 23:32:42;;;;;;;9.45;6.95;;;18.90;99.90;;;;;;4973786;28;20931;-60
2021/07/21 23:35:11;;;;;;;7.78;6.97;;;18.90;99.90;;;;;;4972642;28;20211;-61
2021/07/21 23:37:37;;;;;;;9.40;6.90;;;18.80;99.90;;;;;;4985121;28;20191;-61
2021/07/21 23:40:05;;;;;;;8.90;6.73;;;18.70;99.90;;;;;;4974762;28;20250;-61
2021/07/21 23:42:37;;;;;;;7.50;6.50;;;18.70;99.90;;;;;;4971318;28;20188;-61
2021/07/21 23:45:03;;;;;;;8.07;7.38;;;18.70;99.90;;;;;;4976903;28;20198;-61
2021/07/21 23:47:31;;;;;;;7.70;6.90;;;18.60;99.90;;;;;;4971210;28;20283;-61
2021/07/21 23:49:56;;;;;;;9.50;6.93;;;18.50;99.90;;;;;;4975562;28;20208;-61
2021/07/21 23:52:22;;;;;;;7.83;6.93;;;18.50;99.90;;;;;;4977296;28;20646;-61
2021/07/21 23:54:48;;;;;;;10.47;7.43;;;18.40;99.90;;;;;;4990294;28;20517;-61
2021/07/21 23:57:13;;;;;;;7.90;7.10;;;18.40;99.90;;;;;;4974932;28;20445;-61
2021/07/21 23:59:39;;;;;;;7.60;6.90;;;18.30;99.90;;;;;;4980409;28;20200;-61
